sensor_id;sensor_type;location;lat;lon;timestamp;pressure;altitude;pressure_sealevel;temperature;humidity
52105;BME280;38103;42.776;23.112;2024-03-17T00:00:40;94333.31;;;2.49;86.92
52105;BME280;38103;42.776;23.112;2024-03-17T00:03:06;94339.69;;;2.34;85.31
52105;BME280;38103;42.776;23.112;2024-03-17T00:05:34;94340.47;;;2.35;87.09
52105;BME280;38103;42.776;23.112;2024-03-17T00:08:00;94334.94;;;2.36;86.26
52105;BME280;38103;42.776;23.112;2024-03-17T00:10:25;94337.91;;;2.43;86.82
52105;BME280;38103;42.776;23.112;2024-03-17T00:12:51;94339.63;;;2.48;87.08
52105;BME280;38103;42.776;23.112;2024-03-17T00:15:16;94337.19;;;2.51;86.68
52105;BME280;38103;42.776;23.112;2024-03-17T00:17:42;94338.56;;;2.49;86.53
52105;BME280;38103;42.776;23.112;2024-03-17T00:20:08;94334.69;;;2.46;85.81
52105;BME280;38103;42.776;23.112;2024-03-17T00:22:36;94338.19;;;2.42;87.00
52105;BME280;38103;42.776;23.112;2024-03-17T00:25:06;94336.94;;;2.39;86.81
52105;BME280;38103;42.776;23.112;2024-03-17T00:27:31;94335.69;;;2.37;86.77
52105;BME280;38103;42.776;23.112;2024-03-17T00:29:57;94336.13;;;2.30;86.82
52105;BME280;38103;42.776;23.112;2024-03-17T00:32:22;94337.78;;;2.26;86.68
52105;BME280;38103;42.776;23.112;2024-03-17T00:34:48;94327.13;;;2.22;87.86
52105;BME280;38103;42.776;23.112;2024-03-17T00:37:14;94336.13;;;2.30;87.00
52105;BME280;38103;42.776;23.112;2024-03-17T00:39:39;94326.69;;;2.29;87.65
52105;BME280;38103;42.776;23.112;2024-03-17T00:42:05;94334.50;;;2.20;86.91
52105;BME280;38103;42.776;23.112;2024-03-17T00:44:30;94336.75;;;2.13;87.18
52105;BME280;38103;42.776;23.112;2024-03-17T00:46:56;94330.25;;;2.10;86.83
52105;BME280;38103;42.776;23.112;2024-03-17T00:49:21;94319.53;;;1.98;87.21
52105;BME280;38103;42.776;23.112;2024-03-17T00:51:46;94333.38;;;1.99;86.67
52105;BME280;38103;42.776;23.112;2024-03-17T00:54:14;94326.91;;;1.96;87.50
52105;BME280;38103;42.776;23.112;2024-03-17T00:56:40;94333.88;;;2.01;87.93
52105;BME280;38103;42.776;23.112;2024-03-17T00:59:05;94340.25;;;2.08;89.02
52105;BME280;38103;42.776;23.112;2024-03-17T01:01:30;94334.16;;;1.99;87.54
52105;BME280;38103;42.776;23.112;2024-03-17T01:03:56;94336.13;;;1.94;87.03
52105;BME280;38103;42.776;23.112;2024-03-17T01:06:21;94335.16;;;1.89;87.16
52105;BME280;38103;42.776;23.112;2024-03-17T01:08:47;94330.78;;;1.85;86.16
52105;BME280;38103;42.776;23.112;2024-03-17T01:11:17;94332.66;;;1.84;87.30
52105;BME280;38103;42.776;23.112;2024-03-17T01:13:44;94333.63;;;1.88;87.25
52105;BME280;38103;42.776;23.112;2024-03-17T01:16:10;94337.28;;;1.87;86.78
52105;BME280;38103;42.776;23.112;2024-03-17T01:18:35;94337.09;;;1.84;87.31
52105;BME280;38103;42.776;23.112;2024-03-17T01:21:02;94332.16;;;1.82;87.40
52105;BME280;38103;42.776;23.112;2024-03-17T01:23:28;94335.06;;;1.81;87.29
52105;BME280;38103;42.776;23.112;2024-03-17T01:25:53;94328.50;;;1.83;87.53
52105;BME280;38103;42.776;23.112;2024-03-17T01:28:18;94331.28;;;1.87;88.00
52105;BME280;38103;42.776;23.112;2024-03-17T01:30:44;94327.22;;;1.81;87.96
52105;BME280;38103;42.776;23.112;2024-03-17T01:33:10;94326.28;;;1.77;88.50
52105;BME280;38103;42.776;23.112;2024-03-17T01:35:35;94324.06;;;1.70;87.10
52105;BME280;38103;42.776;23.112;2024-03-17T01:38:01;94329.78;;;1.72;88.32
52105;BME280;38103;42.776;23.112;2024-03-17T01:40:26;94327.44;;;1.71;88.55
52105;BME280;38103;42.776;23.112;2024-03-17T01:42:52;94320.06;;;1.73;88.34
52105;BME280;38103;42.776;23.112;2024-03-17T01:45:28;94322.31;;;1.65;88.18
52105;BME280;38103;42.776;23.112;2024-03-17T01:47:54;94324.16;;;1.65;87.90
52105;BME280;38103;42.776;23.112;2024-03-17T01:50:23;94326.09;;;1.59;87.89
52105;BME280;38103;42.776;23.112;2024-03-17T01:52:50;94322.22;;;1.57;89.19
52105;BME280;38103;42.776;23.112;2024-03-17T01:55:16;94328.81;;;1.54;89.32
52105;BME280;38103;42.776;23.112;2024-03-17T01:57:42;94329.97;;;1.62;88.75
52105;BME280;38103;42.776;23.112;2024-03-17T02:00:07;94325.41;;;1.67;89.78
52105;BME280;38103;42.776;23.112;2024-03-17T02:02:34;94320.84;;;1.73;89.92
52105;BME280;38103;42.776;23.112;2024-03-17T02:04:59;94322.28;;;1.79;89.06
52105;BME280;38103;42.776;23.112;2024-03-17T02:07:25;94322.94;;;1.85;88.52
52105;BME280;38103;42.776;23.112;2024-03-17T02:09:50;94318.59;;;1.80;88.30
52105;BME280;38103;42.776;23.112;2024-03-17T02:12:15;94323.06;;;1.80;89.56
52105;BME280;38103;42.776;23.112;2024-03-17T02:14:41;94316.56;;;1.77;89.68
52105;BME280;38103;42.776;23.112;2024-03-17T02:17:07;94318.31;;;1.82;88.89
52105;BME280;38103;42.776;23.112;2024-03-17T02:19:32;94315.97;;;1.80;88.65
52105;BME280;38103;42.776;23.112;2024-03-17T02:21:57;94309.78;;;1.76;89.31
52105;BME280;38103;42.776;23.112;2024-03-17T02:24:23;94317.94;;;1.75;88.25
52105;BME280;38103;42.776;23.112;2024-03-17T02:26:48;94308.47;;;1.65;87.45
52105;BME280;38103;42.776;23.112;2024-03-17T02:29:13;94315.03;;;1.62;89.11
52105;BME280;38103;42.776;23.112;2024-03-17T02:31:39;94312.50;;;1.71;89.56
52105;BME280;38103;42.776;23.112;2024-03-17T02:34:04;94314.44;;;1.79;90.28
52105;BME280;38103;42.776;23.112;2024-03-17T02:36:30;94315.41;;;1.83;89.46
52105;BME280;38103;42.776;23.112;2024-03-17T02:38:55;94308.97;;;1.89;89.28
52105;BME280;38103;42.776;23.112;2024-03-17T02:41:43;94311.47;;;1.95;89.53
52105;BME280;38103;42.776;23.112;2024-03-17T02:44:08;94316.16;;;1.98;88.29
52105;BME280;38103;42.776;23.112;2024-03-17T02:46:34;94309.94;;;1.94;88.59
52105;BME280;38103;42.776;23.112;2024-03-17T02:49:00;94310.25;;;1.78;86.90
52105;BME280;38103;42.776;23.112;2024-03-17T02:51:25;94305.84;;;1.65;88.10
52105;BME280;38103;42.776;23.112;2024-03-17T02:53:51;94303.63;;;1.72;89.03
52105;BME280;38103;42.776;23.112;2024-03-17T02:56:17;94306.88;;;1.78;88.63
52105;BME280;38103;42.776;23.112;2024-03-17T02:58:44;94310.75;;;1.80;88.68
52105;BME280;38103;42.776;23.112;2024-03-17T03:01:12;94301.66;;;1.78;88.93
52105;BME280;38103;42.776;23.112;2024-03-17T03:03:37;94309.38;;;1.83;88.65
52105;BME280;38103;42.776;23.112;2024-03-17T03:06:03;94312.31;;;1.81;89.18
52105;BME280;38103;42.776;23.112;2024-03-17T03:08:37;94308.97;;;1.89;88.74
52105;BME280;38103;42.776;23.112;2024-03-17T03:11:06;94309.19;;;1.93;88.83
52105;BME280;38103;42.776;23.112;2024-03-17T03:13:32;94308.09;;;1.94;89.22
52105;BME280;38103;42.776;23.112;2024-03-17T03:15:57;94311.03;;;1.93;89.31
52105;BME280;38103;42.776;23.112;2024-03-17T03:18:23;94311.91;;;1.88;88.26
52105;BME280;38103;42.776;23.112;2024-03-17T03:20:51;94308.22;;;1.89;88.49
52105;BME280;38103;42.776;23.112;2024-03-17T03:23:18;94306.88;;;1.78;87.17
52105;BME280;38103;42.776;23.112;2024-03-17T03:25:43;94299.16;;;1.73;88.57
52105;BME280;38103;42.776;23.112;2024-03-17T03:28:09;94303.97;;;1.79;88.87
52105;BME280;38103;42.776;23.112;2024-03-17T03:30:38;94307.25;;;1.85;88.78
52105;BME280;38103;42.776;23.112;2024-03-17T03:33:04;94306.47;;;1.84;88.74
52105;BME280;38103;42.776;23.112;2024-03-17T03:35:30;94305.41;;;1.85;88.43
52105;BME280;38103;42.776;23.112;2024-03-17T03:37:55;94303.00;;;1.75;86.75
52105;BME280;38103;42.776;23.112;2024-03-17T03:40:21;94304.88;;;1.75;88.48
52105;BME280;38103;42.776;23.112;2024-03-17T03:42:47;94309.38;;;1.83;87.90
52105;BME280;38103;42.776;23.112;2024-03-17T03:45:12;94311.63;;;1.76;88.05
52105;BME280;38103;42.776;23.112;2024-03-17T03:47:41;94313.59;;;1.70;88.04
52105;BME280;38103;42.776;23.112;2024-03-17T03:50:08;94315.53;;;1.64;88.54
52105;BME280;38103;42.776;23.112;2024-03-17T03:52:39;94311.75;;;1.71;89.01
52105;BME280;38103;42.776;23.112;2024-03-17T03:55:10;94313.59;;;1.70;88.16
52105;BME280;38103;42.776;23.112;2024-03-17T03:57:38;94323.09;;;1.66;87.76
52105;BME280;38103;42.776;23.112;2024-03-17T04:00:04;94317.97;;;1.61;88.65
52105;BME280;38103;42.776;23.112;2024-03-17T04:02:44;94322.00;;;1.67;89.42
52105;BME280;38103;42.776;23.112;2024-03-17T04:05:10;94321.81;;;1.77;88.47
52105;BME280;38103;42.776;23.112;2024-03-17T04:07:36;94319.56;;;1.84;88.98
52105;BME280;38103;42.776;23.112;2024-03-17T04:10:03;94325.94;;;1.92;89.42
52105;BME280;38103;42.776;23.112;2024-03-17T04:12:28;94327.19;;;1.95;88.02
52105;BME280;38103;42.776;23.112;2024-03-17T04:14:56;94328.91;;;1.99;88.96
52105;BME280;38103;42.776;23.112;2024-03-17T04:17:22;94329.88;;;2.03;88.26
52105;BME280;38103;42.776;23.112;2024-03-17T04:19:52;94330.69;;;2.04;88.14
52105;BME280;38103;42.776;23.112;2024-03-17T04:22:18;94329.13;;;2.03;87.43
52105;BME280;38103;42.776;23.112;2024-03-17T04:24:48;94334.06;;;2.04;88.61
52105;BME280;38103;42.776;23.112;2024-03-17T04:27:21;94336.97;;;2.03;87.64
52105;BME280;38103;42.776;23.112;2024-03-17T04:29:47;94340.53;;;2.07;88.20
52105;BME280;38103;42.776;23.112;2024-03-17T04:32:15;94335.78;;;2.09;88.51
52105;BME280;38103;42.776;23.112;2024-03-17T04:34:41;94344.00;;;2.16;88.57
52105;BME280;38103;42.776;23.112;2024-03-17T04:37:08;94348.84;;;2.23;88.48
52105;BME280;38103;42.776;23.112;2024-03-17T04:39:36;94351.75;;;2.21;87.63
52105;BME280;38103;42.776;23.112;2024-03-17T04:42:03;94349.97;;;2.30;88.47
52105;BME280;38103;42.776;23.112;2024-03-17T04:44:29;94358.94;;;2.38;87.41
52105;BME280;38103;42.776;23.112;2024-03-17T04:46:54;94351.97;;;2.34;87.70
52105;BME280;38103;42.776;23.112;2024-03-17T04:49:20;94362.00;;;2.32;87.54
52105;BME280;38103;42.776;23.112;2024-03-17T04:51:45;94367.25;;;2.32;87.12
52105;BME280;38103;42.776;23.112;2024-03-17T04:54:11;94374.63;;;2.29;86.84
52105;BME280;38103;42.776;23.112;2024-03-17T04:56:36;94374.78;;;2.33;87.56
52105;BME280;38103;42.776;23.112;2024-03-17T04:59:02;94377.41;;;2.33;86.81
52105;BME280;38103;42.776;23.112;2024-03-17T05:01:27;94382.06;;;2.36;86.98
52105;BME280;38103;42.776;23.112;2024-03-17T05:03:52;94384.44;;;2.46;87.30
52105;BME280;38103;42.776;23.112;2024-03-17T05:06:18;94386.38;;;2.55;87.39
52105;BME280;38103;42.776;23.112;2024-03-17T05:08:43;94380.59;;;2.66;86.42
52105;BME280;38103;42.776;23.112;2024-03-17T05:11:09;94389.50;;;2.65;86.33
52105;BME280;38103;42.776;23.112;2024-03-17T05:13:35;94393.38;;;2.68;86.47
52105;BME280;38103;42.776;23.112;2024-03-17T05:16:01;94387.63;;;2.80;86.77
52105;BME280;38103;42.776;23.112;2024-03-17T05:18:29;94395.59;;;2.97;86.02
52105;BME280;38103;42.776;23.112;2024-03-17T05:21:07;94387.34;;;3.12;85.90
52105;BME280;38103;42.776;23.112;2024-03-17T05:23:35;94394.94;;;3.23;85.61
52105;BME280;38103;42.776;23.112;2024-03-17T05:26:01;94396.25;;;3.34;85.28
52105;BME280;38103;42.776;23.112;2024-03-17T05:28:30;94401.25;;;3.44;85.10
52105;BME280;38103;42.776;23.112;2024-03-17T05:30:56;94404.06;;;3.56;84.39
52105;BME280;38103;42.776;23.112;2024-03-17T05:33:23;94401.50;;;3.74;84.44
52105;BME280;38103;42.776;23.112;2024-03-17T05:35:59;94406.31;;;3.89;83.78
52105;BME280;38103;42.776;23.112;2024-03-17T05:38:29;94399.88;;;4.04;83.17
52105;BME280;38103;42.776;23.112;2024-03-17T05:41:03;94397.44;;;4.25;82.17
52105;BME280;38103;42.776;23.112;2024-03-17T05:43:30;94399.47;;;4.46;81.80
52105;BME280;38103;42.776;23.112;2024-03-17T05:46:00;94397.00;;;4.67;80.79
52105;BME280;38103;42.776;23.112;2024-03-17T05:48:26;94402.56;;;4.91;81.11
52105;BME280;38103;42.776;23.112;2024-03-17T05:50:52;94398.34;;;5.16;78.72
52105;BME280;38103;42.776;23.112;2024-03-17T05:53:18;94407.56;;;5.40;77.83
52105;BME280;38103;42.776;23.112;2024-03-17T05:55:44;94403.78;;;5.58;78.12
52105;BME280;38103;42.776;23.112;2024-03-17T05:58:10;94408.84;;;5.72;75.98
52105;BME280;38103;42.776;23.112;2024-03-17T06:00:36;94405.53;;;5.84;76.66
52105;BME280;38103;42.776;23.112;2024-03-17T06:03:02;94407.66;;;5.99;76.62
52105;BME280;38103;42.776;23.112;2024-03-17T06:05:31;94407.19;;;6.27;76.04
52105;BME280;38103;42.776;23.112;2024-03-17T06:07:57;94407.66;;;6.71;76.18
52105;BME280;38103;42.776;23.112;2024-03-17T06:10:22;94403.88;;;7.14;72.68
52105;BME280;38103;42.776;23.112;2024-03-17T06:12:49;94414.56;;;7.75;71.64
52105;BME280;38103;42.776;23.112;2024-03-17T06:15:15;94413.16;;;8.27;71.07
52105;BME280;38103;42.776;23.112;2024-03-17T06:17:41;94411.44;;;8.72;68.85
52105;BME280;38103;42.776;23.112;2024-03-17T06:20:07;94414.13;;;9.16;68.46
52105;BME280;38103;42.776;23.112;2024-03-17T06:22:36;94415.38;;;9.34;66.97
52105;BME280;38103;42.776;23.112;2024-03-17T06:25:01;94413.63;;;9.54;65.23
52105;BME280;38103;42.776;23.112;2024-03-17T06:27:27;94422.34;;;9.86;64.05
52105;BME280;38103;42.776;23.112;2024-03-17T06:29:53;94414.91;;;10.08;63.42
52105;BME280;38103;42.776;23.112;2024-03-17T06:32:20;94405.34;;;9.88;62.35
52105;BME280;38103;42.776;23.112;2024-03-17T06:34:45;94414.47;;;9.58;63.53
52105;BME280;38103;42.776;23.112;2024-03-17T06:37:11;94417.13;;;9.58;64.72
52105;BME280;38103;42.776;23.112;2024-03-17T06:39:37;94420.22;;;9.76;62.57
52105;BME280;38103;42.776;23.112;2024-03-17T06:42:02;94420.22;;;9.76;62.47
52105;BME280;38103;42.776;23.112;2024-03-17T06:44:28;94420.97;;;9.61;62.55
52105;BME280;38103;42.776;23.112;2024-03-17T06:46:55;94422.16;;;9.48;62.87
52105;BME280;38103;42.776;23.112;2024-03-17T06:49:21;94421.97;;;9.40;64.27
52105;BME280;38103;42.776;23.112;2024-03-17T06:51:46;94426.03;;;9.22;62.29
52105;BME280;38103;42.776;23.112;2024-03-17T06:54:13;94427.16;;;9.21;62.74
52105;BME280;38103;42.776;23.112;2024-03-17T06:56:38;94428.19;;;9.04;66.36
52105;BME280;38103;42.776;23.112;2024-03-17T06:59:05;94428.00;;;9.25;64.78
52105;BME280;38103;42.776;23.112;2024-03-17T07:01:30;94428.63;;;9.34;65.61
52105;BME280;38103;42.776;23.112;2024-03-17T07:03:56;94436.47;;;9.31;65.44
52105;BME280;38103;42.776;23.112;2024-03-17T07:06:21;94433.72;;;9.87;64.31
52105;BME280;38103;42.776;23.112;2024-03-17T07:08:46;94442.47;;;10.03;62.91
52105;BME280;38103;42.776;23.112;2024-03-17T07:11:12;94439.75;;;10.51;61.43
52105;BME280;38103;42.776;23.112;2024-03-17T07:13:38;94435.25;;;11.06;59.67
52105;BME280;38103;42.776;23.112;2024-03-17T07:16:07;94441.94;;;11.39;58.30
52105;BME280;38103;42.776;23.112;2024-03-17T07:18:34;94447.44;;;11.50;58.62
52105;BME280;38103;42.776;23.112;2024-03-17T07:21:00;94438.81;;;11.57;57.33
52105;BME280;38103;42.776;23.112;2024-03-17T07:23:27;94447.94;;;11.36;56.50
52105;BME280;38103;42.776;23.112;2024-03-17T07:28:19;94454.59;;;10.52;59.90
52105;BME280;38103;42.776;23.112;2024-03-17T07:30:52;94460.31;;;10.22;60.90
52105;BME280;38103;42.776;23.112;2024-03-17T07:33:19;94453.91;;;9.92;60.25
52105;BME280;38103;42.776;23.112;2024-03-17T07:35:52;94453.38;;;9.70;62.28
52105;BME280;38103;42.776;23.112;2024-03-17T07:38:18;94457.28;;;9.44;62.28
52105;BME280;38103;42.776;23.112;2024-03-17T07:40:45;94458.19;;;9.36;63.65
52105;BME280;38103;42.776;23.112;2024-03-17T07:43:10;94448.34;;;9.21;65.04
52105;BME280;38103;42.776;23.112;2024-03-17T07:45:36;94455.66;;;8.99;65.50
52105;BME280;38103;42.776;23.112;2024-03-17T07:48:02;94456.09;;;9.01;65.06
52105;BME280;38103;42.776;23.112;2024-03-17T07:50:27;94458.81;;;8.89;66.44
52105;BME280;38103;42.776;23.112;2024-03-17T07:52:53;94455.44;;;9.05;66.04
52105;BME280;38103;42.776;23.112;2024-03-17T07:55:18;94448.97;;;9.30;67.63
52105;BME280;38103;42.776;23.112;2024-03-17T07:57:43;94447.03;;;9.15;64.91
52105;BME280;38103;42.776;23.112;2024-03-17T08:00:09;94442.47;;;9.88;61.22
52105;BME280;38103;42.776;23.112;2024-03-17T08:02:44;94448.34;;;10.13;61.23
52105;BME280;38103;42.776;23.112;2024-03-17T08:05:10;94450.03;;;10.21;60.55
52105;BME280;38103;42.776;23.112;2024-03-17T08:07:35;94436.63;;;10.30;60.11
52105;BME280;38103;42.776;23.112;2024-03-17T08:10:00;94444.84;;;10.24;60.03
52105;BME280;38103;42.776;23.112;2024-03-17T08:12:29;94443.22;;;10.20;61.79
52105;BME280;38103;42.776;23.112;2024-03-17T08:14:54;94447.50;;;10.24;61.52
52105;BME280;38103;42.776;23.112;2024-03-17T08:17:19;94448.78;;;10.31;61.28
52105;BME280;38103;42.776;23.112;2024-03-17T08:19:45;94436.38;;;10.35;61.77
52105;BME280;38103;42.776;23.112;2024-03-17T08:22:10;94434.84;;;10.34;60.15
52105;BME280;38103;42.776;23.112;2024-03-17T08:24:36;94445.59;;;10.41;61.45
52105;BME280;38103;42.776;23.112;2024-03-17T08:27:01;94443.38;;;10.27;64.18
52105;BME280;38103;42.776;23.112;2024-03-17T08:29:26;94435.16;;;10.48;61.10
52105;BME280;38103;42.776;23.112;2024-03-17T08:31:52;94433.78;;;10.74;59.85
52105;BME280;38103;42.776;23.112;2024-03-17T08:34:17;94431.16;;;10.74;59.98
52105;BME280;38103;42.776;23.112;2024-03-17T08:36:42;94424.78;;;10.78;58.44
52105;BME280;38103;42.776;23.112;2024-03-17T08:39:08;94420.47;;;10.89;57.52
52105;BME280;38103;42.776;23.112;2024-03-17T08:41:36;94423.63;;;10.95;60.78
52105;BME280;38103;42.776;23.112;2024-03-17T08:44:02;94419.28;;;11.26;61.46
52105;BME280;38103;42.776;23.112;2024-03-17T08:46:27;94414.75;;;11.69;56.03
52105;BME280;38103;42.776;23.112;2024-03-17T08:48:53;94413.38;;;11.79;54.07
52105;BME280;38103;42.776;23.112;2024-03-17T08:51:18;94406.19;;;12.02;54.11
52105;BME280;38103;42.776;23.112;2024-03-17T08:53:44;94405.06;;;12.03;54.00
52105;BME280;38103;42.776;23.112;2024-03-17T08:56:10;94408.91;;;12.06;54.38
52105;BME280;38103;42.776;23.112;2024-03-17T08:58:35;94412.16;;;11.95;55.69
52105;BME280;38103;42.776;23.112;2024-03-17T09:01:07;94406.97;;;12.29;54.83
52105;BME280;38103;42.776;23.112;2024-03-17T09:03:36;94404.97;;;12.49;53.90
52105;BME280;38103;42.776;23.112;2024-03-17T09:06:01;94406.47;;;12.47;54.55
52105;BME280;38103;42.776;23.112;2024-03-17T09:08:27;94389.19;;;12.64;54.36
52105;BME280;38103;42.776;23.112;2024-03-17T09:10:54;94391.53;;;12.69;55.65
52105;BME280;38103;42.776;23.112;2024-03-17T09:13:23;94391.66;;;12.76;53.81
52105;BME280;38103;42.776;23.112;2024-03-17T09:15:54;94395.00;;;13.03;54.17
52105;BME280;38103;42.776;23.112;2024-03-17T09:18:21;94376.00;;;13.38;52.33
52105;BME280;38103;42.776;23.112;2024-03-17T09:21:01;94384.09;;;13.49;54.82
52105;BME280;38103;42.776;23.112;2024-03-17T09:23:28;94380.97;;;13.40;53.18
52105;BME280;38103;42.776;23.112;2024-03-17T09:25:58;94384.56;;;13.58;51.25
52105;BME280;38103;42.776;23.112;2024-03-17T09:28:24;94374.75;;;13.70;50.97
52105;BME280;38103;42.776;23.112;2024-03-17T09:30:49;94381.31;;;13.79;50.84
52105;BME280;38103;42.776;23.112;2024-03-17T09:33:15;94375.09;;;13.65;50.34
52105;BME280;38103;42.776;23.112;2024-03-17T09:35:40;94382.63;;;13.55;49.70
52105;BME280;38103;42.776;23.112;2024-03-17T09:38:05;94378.31;;;13.44;47.34
52105;BME280;38103;42.776;23.112;2024-03-17T09:40:31;94374.44;;;13.37;48.40
52105;BME280;38103;42.776;23.112;2024-03-17T09:42:56;94373.53;;;13.23;48.69
52105;BME280;38103;42.776;23.112;2024-03-17T09:45:24;94377.56;;;13.09;51.17
52105;BME280;38103;42.776;23.112;2024-03-17T09:47:50;94377.91;;;13.04;51.04
52105;BME280;38103;42.776;23.112;2024-03-17T09:50:16;94383.25;;;13.08;51.36
52105;BME280;38103;42.776;23.112;2024-03-17T09:52:44;94379.72;;;12.96;47.89
52105;BME280;38103;42.776;23.112;2024-03-17T09:55:16;94377.81;;;12.97;49.17
52105;BME280;38103;42.776;23.112;2024-03-17T09:57:43;94378.78;;;12.82;50.23
52105;BME280;38103;42.776;23.112;2024-03-17T10:00:11;94379.41;;;12.71;49.17
52105;BME280;38103;42.776;23.112;2024-03-17T10:02:43;94376.78;;;12.75;52.09
52105;BME280;38103;42.776;23.112;2024-03-17T10:05:25;94378.13;;;12.62;51.69
52105;BME280;38103;42.776;23.112;2024-03-17T10:07:51;94388.34;;;12.56;52.79
52105;BME280;38103;42.776;23.112;2024-03-17T10:10:18;94385.25;;;12.54;50.85
52105;BME280;38103;42.776;23.112;2024-03-17T10:12:48;94383.59;;;12.42;50.41
52105;BME280;38103;42.776;23.112;2024-03-17T10:15:14;94386.41;;;12.26;51.80
52105;BME280;38103;42.776;23.112;2024-03-17T10:17:39;94390.19;;;12.25;51.23
52105;BME280;38103;42.776;23.112;2024-03-17T10:20:25;94386.19;;;12.39;50.88
52105;BME280;38103;42.776;23.112;2024-03-17T10:23:07;94391.09;;;12.36;50.37
52105;BME280;38103;42.776;23.112;2024-03-17T10:25:38;94389.34;;;12.48;48.26
52105;BME280;38103;42.776;23.112;2024-03-17T10:28:10;94391.00;;;12.56;48.48
52105;BME280;38103;42.776;23.112;2024-03-17T10:30:36;94392.09;;;12.55;46.97
52105;BME280;38103;42.776;23.112;2024-03-17T10:33:02;94387.56;;;12.55;46.94
52105;BME280;38103;42.776;23.112;2024-03-17T10:35:34;94381.75;;;12.76;49.04
52105;BME280;38103;42.776;23.112;2024-03-17T10:38:04;94370.25;;;13.03;48.24
52105;BME280;38103;42.776;23.112;2024-03-17T10:40:30;94383.56;;;12.99;44.91
52105;BME280;38103;42.776;23.112;2024-03-17T10:42:58;94385.22;;;13.14;46.29
52105;BME280;38103;42.776;23.112;2024-03-17T10:45:25;94375.94;;;13.35;47.57
52105;BME280;38103;42.776;23.112;2024-03-17T10:47:51;94372.31;;;13.50;44.08
52105;BME280;38103;42.776;23.112;2024-03-17T10:50:19;94372.53;;;13.34;43.10
52105;BME280;38103;42.776;23.112;2024-03-17T10:52:46;94378.03;;;13.15;44.59
52105;BME280;38103;42.776;23.112;2024-03-17T10:55:23;94379.47;;;13.09;46.06
52105;BME280;38103;42.776;23.112;2024-03-17T10:57:51;94381.28;;;13.01;47.34
52105;BME280;38103;42.776;23.112;2024-03-17T11:00:18;94375.16;;;12.97;47.66
52105;BME280;38103;42.776;23.112;2024-03-17T11:02:45;94377.44;;;12.98;47.23
52105;BME280;38103;42.776;23.112;2024-03-17T11:07:39;94365.38;;;13.08;43.76
52105;BME280;38103;42.776;23.112;2024-03-17T11:10:15;94366.00;;;12.94;44.02
52105;BME280;38103;42.776;23.112;2024-03-17T11:20:37;94370.69;;;12.44;44.18
52105;BME280;38103;42.776;23.112;2024-03-17T11:23:02;94373.78;;;12.46;45.09
52105;BME280;38103;42.776;23.112;2024-03-17T11:27:59;94368.38;;;12.43;47.59
52105;BME280;38103;42.776;23.112;2024-03-17T11:41:37;94356.84;;;12.62;49.10
52105;BME280;38103;42.776;23.112;2024-03-17T11:46:39;94353.75;;;12.60;49.52
52105;BME280;38103;42.776;23.112;2024-03-17T11:49:06;94354.47;;;12.53;49.11
52105;BME280;38103;42.776;23.112;2024-03-17T11:51:34;94343.28;;;12.44;50.58
52105;BME280;38103;42.776;23.112;2024-03-17T11:54:00;94347.34;;;12.64;50.44
52105;BME280;38103;42.776;23.112;2024-03-17T11:56:25;94352.59;;;12.57;49.93
52105;BME280;38103;42.776;23.112;2024-03-17T11:59:06;94349.66;;;12.66;50.33
52105;BME280;38103;42.776;23.112;2024-03-17T12:01:36;94348.09;;;12.61;50.35
52105;BME280;38103;42.776;23.112;2024-03-17T12:04:03;94348.25;;;12.45;51.10
52105;BME280;38103;42.776;23.112;2024-03-17T12:06:31;94355.56;;;12.52;51.84
52105;BME280;38103;42.776;23.112;2024-03-17T12:09:30;94348.91;;;12.65;51.80
52105;BME280;38103;42.776;23.112;2024-03-17T12:12:06;94353.31;;;12.54;52.25
52105;BME280;38103;42.776;23.112;2024-03-17T12:14:33;94345.34;;;12.54;52.02
52105;BME280;38103;42.776;23.112;2024-03-17T12:17:03;94356.50;;;12.36;53.35
52105;BME280;38103;42.776;23.112;2024-03-17T12:19:29;94345.50;;;12.38;52.95
52105;BME280;38103;42.776;23.112;2024-03-17T12:21:56;94346.94;;;12.32;53.95
52105;BME280;38103;42.776;23.112;2024-03-17T12:24:24;94337.19;;;12.40;52.35
52105;BME280;38103;42.776;23.112;2024-03-17T12:26:51;94338.53;;;12.26;52.97
52105;BME280;38103;42.776;23.112;2024-03-17T12:31:56;94343.78;;;12.23;53.98
52105;BME280;38103;42.776;23.112;2024-03-17T12:34:24;94333.97;;;12.27;54.67
52105;BME280;38103;42.776;23.112;2024-03-17T12:36:50;94331.28;;;12.27;54.00
52105;BME280;38103;42.776;23.112;2024-03-17T12:42:10;94328.59;;;12.23;53.99
52105;BME280;38103;42.776;23.112;2024-03-17T12:47:03;94326.72;;;12.27;54.76
52105;BME280;38103;42.776;23.112;2024-03-17T12:49:30;94320.91;;;12.18;54.83
52105;BME280;38103;42.776;23.112;2024-03-17T12:51:56;94326.66;;;11.93;55.76
52105;BME280;38103;42.776;23.112;2024-03-17T12:54:24;94337.44;;;11.81;56.63
52105;BME280;38103;42.776;23.112;2024-03-17T12:56:50;94329.06;;;11.79;56.75
52105;BME280;38103;42.776;23.112;2024-03-17T12:59:41;94326.31;;;11.72;56.29
52105;BME280;38103;42.776;23.112;2024-03-17T13:02:25;94326.19;;;11.65;57.61
52105;BME280;38103;42.776;23.112;2024-03-17T13:05:25;94331.63;;;11.72;59.17
52105;BME280;38103;42.776;23.112;2024-03-17T13:07:51;94320.31;;;11.79;58.07
52105;BME280;38103;42.776;23.112;2024-03-17T13:10:18;94322.03;;;11.90;57.90
52105;BME280;38103;42.776;23.112;2024-03-17T13:12:47;94317.44;;;11.87;57.53
52105;BME280;38103;42.776;23.112;2024-03-17T13:15:15;94314.34;;;11.85;57.74
52105;BME280;38103;42.776;23.112;2024-03-17T13:17:42;94313.38;;;11.93;57.73
52105;BME280;38103;42.776;23.112;2024-03-17T13:20:14;94313.91;;;11.80;56.88
52105;BME280;38103;42.776;23.112;2024-03-17T13:22:41;94320.28;;;11.75;57.97
52105;BME280;38103;42.776;23.112;2024-03-17T13:25:23;94319.91;;;11.77;57.98
52105;BME280;38103;42.776;23.112;2024-03-17T13:27:50;94313.97;;;11.60;59.16
52105;BME280;38103;42.776;23.112;2024-03-17T13:30:17;94308.53;;;11.53;58.47
52105;BME280;38103;42.776;23.112;2024-03-17T13:32:44;94310.38;;;11.49;58.21